createdAt,value
2017-04-27T00:01:52.773Z,2.10
2017-04-27T00:04:20.421Z,2.20
2017-04-27T00:06:48.081Z,2.20
2017-04-27T00:09:15.728Z,2.30
2017-04-27T00:11:44.160Z,2.30
2017-04-27T00:14:11.800Z,2.20
2017-04-27T00:16:40.240Z,2.20
2017-04-27T00:19:08.649Z,2.20
2017-04-27T00:21:36.328Z,2.10
2017-04-27T00:24:03.978Z,2.20
2017-04-27T00:26:31.651Z,2.20
2017-04-27T00:29:00.081Z,2.20
2017-04-27T00:31:27.747Z,2.10
2017-04-27T00:33:55.390Z,2.20
2017-04-27T00:36:23.067Z,2.20
2017-04-27T00:38:51.484Z,2.20
2017-04-27T00:41:19.932Z,2.30
2017-04-27T00:43:47.594Z,2.30
2017-04-27T00:46:15.274Z,2.30
2017-04-27T00:48:42.917Z,2.30
2017-04-27T00:51:11.351Z,2.40
2017-04-27T00:53:39.018Z,2.30
2017-04-27T00:56:06.688Z,2.40
2017-04-27T00:58:35.090Z,2.40
2017-04-27T01:01:03.514Z,2.40
2017-04-27T01:03:31.950Z,2.40
2017-04-27T01:05:59.604Z,2.30
2017-04-27T01:08:27.275Z,2.40
2017-04-27T01:10:55.689Z,2.50
2017-04-27T01:13:24.132Z,2.50
2017-04-27T01:15:51.775Z,2.40
2017-04-27T01:18:19.491Z,2.50
2017-04-27T01:20:47.140Z,2.50
2017-04-27T01:23:15.591Z,2.50
2017-04-27T01:25:43.237Z,2.40
2017-04-27T01:28:10.915Z,2.40
2017-04-27T01:30:39.329Z,2.40
2017-04-27T01:33:06.997Z,2.40
2017-04-27T01:35:34.648Z,2.40
2017-04-27T01:38:02.319Z,2.30
2017-04-27T01:40:30.016Z,2.30
2017-04-27T01:42:58.448Z,2.10
2017-04-27T01:45:26.096Z,2.10
2017-04-27T01:47:53.777Z,2.10
2017-04-27T01:50:22.192Z,2.00
2017-04-27T01:52:50.624Z,1.90
2017-04-27T01:55:18.269Z,1.90
2017-04-27T01:57:47.461Z,1.90
2017-04-27T02:00:15.121Z,1.80
2017-04-27T02:02:43.557Z,1.80
2017-04-27T02:05:11.255Z,1.70
2017-04-27T02:07:39.199Z,1.70
2017-04-27T02:10:07.612Z,1.70
2017-04-27T02:12:35.264Z,1.60
2017-04-27T02:15:02.932Z,1.60
2017-04-27T02:17:30.592Z,1.60
2017-04-27T02:19:59.028Z,1.50
2017-04-27T02:22:26.677Z,1.40
2017-04-27T02:24:54.345Z,1.40
2017-04-27T02:27:22.004Z,1.40
2017-04-27T02:29:50.444Z,1.30
2017-04-27T02:32:18.094Z,1.20
2017-04-27T02:34:46.525Z,1.20
2017-04-27T02:37:14.161Z,1.20
2017-04-27T02:39:41.895Z,1.20
2017-04-27T02:42:09.537Z,1.20
2017-04-27T02:44:37.218Z,1.20
2017-04-27T02:47:04.876Z,1.20
2017-04-27T02:49:33.306Z,1.10
2017-04-27T02:52:00.953Z,1.10
2017-04-27T02:54:28.631Z,1.10
2017-04-27T02:56:57.055Z,1.00
2017-04-27T02:59:24.734Z,0.90
2017-04-27T03:01:52.381Z,0.90
2017-04-27T03:04:20.066Z,0.90
2017-04-27T03:06:47.708Z,0.80
2017-04-27T03:09:15.383Z,0.90
2017-04-27T03:11:43.031Z,0.80
2017-04-27T03:14:11.463Z,0.80
2017-04-27T03:16:39.108Z,0.80
2017-04-27T03:19:06.777Z,0.90
2017-04-27T03:21:35.193Z,0.90
2017-04-27T03:24:02.878Z,0.90
2017-04-27T03:26:31.283Z,0.80
2017-04-27T03:28:59.248Z,0.70
2017-04-27T03:31:26.912Z,0.80
2017-04-27T03:33:54.557Z,0.80
2017-04-27T03:36:22.237Z,0.80
2017-04-27T03:38:50.646Z,0.80
2017-04-27T03:41:18.319Z,0.70
2017-04-27T03:43:45.970Z,0.80
2017-04-27T03:46:13.663Z,0.80
2017-04-27T03:48:42.079Z,0.80
2017-04-27T03:51:09.757Z,0.80
2017-04-27T03:53:38.177Z,0.80
2017-04-27T03:56:05.858Z,0.80
2017-04-27T03:58:33.506Z,0.90
2017-04-27T04:01:01.182Z,1.00
2017-04-27T04:03:28.822Z,1.10
2017-04-27T04:05:57.267Z,1.20
2017-04-27T04:08:25.681Z,1.20
2017-04-27T04:10:53.362Z,1.20
2017-04-27T04:13:21.884Z,1.30
2017-04-27T04:15:49.557Z,1.20
2017-04-27T04:18:18.005Z,1.40
2017-04-27T04:20:45.685Z,1.30
2017-04-27T04:23:13.340Z,1.40
2017-04-27T04:25:41.026Z,1.50
2017-04-27T04:28:08.722Z,1.50
2017-04-27T04:30:37.161Z,1.60
2017-04-27T04:33:04.796Z,1.60
2017-04-27T04:35:32.478Z,1.70
2017-04-27T04:38:00.117Z,1.80
2017-04-27T04:40:27.772Z,1.90
2017-04-27T04:42:55.438Z,2.00
2017-04-27T04:45:23.381Z,2.00
2017-04-27T04:47:51.047Z,2.00
2017-04-27T04:50:19.452Z,2.00
2017-04-27T04:52:47.941Z,2.10
2017-04-27T04:55:15.586Z,2.00
2017-04-27T04:57:43.258Z,2.10
2017-04-27T05:00:10.908Z,2.20
2017-04-27T05:02:38.573Z,2.30
2017-04-27T05:05:06.990Z,2.40
2017-04-27T05:07:34.790Z,2.30
2017-04-27T05:10:02.496Z,2.40
2017-04-27T05:12:30.169Z,2.60
2017-04-27T05:14:57.814Z,2.60
2017-04-27T05:17:25.485Z,2.80
2017-04-27T05:19:53.909Z,3.00
2017-04-27T05:22:21.748Z,2.90
2017-04-27T05:24:49.435Z,3.10
2017-04-27T05:27:17.999Z,3.30
2017-04-27T05:29:46.439Z,3.40
2017-04-27T05:32:14.100Z,3.30
2017-04-27T05:34:41.748Z,3.50
2017-04-27T05:37:09.768Z,3.60
2017-04-27T05:39:37.412Z,3.80
2017-04-27T05:42:05.113Z,4.10
2017-04-27T05:44:33.550Z,4.30
2017-04-27T05:47:01.958Z,4.50
2017-04-27T05:49:29.638Z,4.50
2017-04-27T05:51:57.297Z,4.70
2017-04-27T05:54:26.094Z,4.90
2017-04-27T05:56:53.784Z,4.80
2017-04-27T05:59:21.432Z,5.00
2017-04-27T06:01:49.096Z,4.90
2017-04-27T06:04:16.742Z,4.90
2017-04-27T06:06:44.705Z,4.80
2017-04-27T06:09:13.132Z,4.70
2017-04-27T06:11:41.545Z,4.80
2017-04-27T06:14:09.981Z,5.00
2017-04-27T06:16:37.661Z,4.90
2017-04-27T06:19:05.364Z,5.00
2017-04-27T06:21:33.019Z,5.10
2017-04-27T06:24:01.460Z,4.90
2017-04-27T06:26:29.886Z,5.00
2017-04-27T06:28:58.653Z,5.10
2017-04-27T06:31:26.299Z,5.00
2017-04-27T06:33:53.952Z,5.20
2017-04-27T06:36:21.625Z,5.20
2017-04-27T06:38:49.285Z,5.40
2017-04-27T06:41:17.732Z,5.70
2017-04-27T06:43:45.393Z,5.70
2017-04-27T06:46:13.844Z,5.90
2017-04-27T06:48:41.507Z,5.90
2017-04-27T06:51:10.215Z,6.00
2017-04-27T06:53:38.647Z,6.10
2017-04-27T06:56:07.053Z,6.20
2017-04-27T06:58:34.725Z,6.10
2017-04-27T07:01:02.523Z,6.20
2017-04-27T07:03:30.196Z,6.40
2017-04-27T07:05:57.845Z,6.40
2017-04-27T07:08:26.557Z,6.40
2017-04-27T07:10:54.309Z,6.40
2017-04-27T07:13:21.948Z,6.40
2017-04-27T07:15:49.639Z,6.50
2017-04-27T07:18:17.300Z,6.60
2017-04-27T07:20:45.289Z,6.80
2017-04-27T07:23:12.951Z,6.90
2017-04-27T07:25:41.375Z,7.10
2017-04-27T07:28:09.343Z,7.00
2017-04-27T07:30:37.021Z,7.30
2017-04-27T07:33:05.453Z,7.80
2017-04-27T07:35:33.130Z,7.80
2017-04-27T07:38:00.777Z,8.00
2017-04-27T07:40:29.211Z,8.30
2017-04-27T07:42:56.866Z,8.20
2017-04-27T07:45:25.621Z,8.90
2017-04-27T07:47:53.262Z,8.80
2017-04-27T07:50:20.915Z,8.80
2017-04-27T07:52:48.580Z,9.00
2017-04-27T07:55:16.232Z,8.80
2017-04-27T07:57:44.172Z,8.90
2017-04-27T08:00:11.874Z,9.00
2017-04-27T08:02:39.529Z,9.20
2017-04-27T08:05:07.238Z,9.30
2017-04-27T08:07:34.902Z,9.20
2017-04-27T08:10:03.429Z,9.40
2017-04-27T08:12:31.084Z,9.30
2017-04-27T08:14:59.120Z,9.90
2017-04-27T08:17:27.546Z,10.60
2017-04-27T08:19:55.196Z,10.60
2017-04-27T08:22:22.869Z,10.90
2017-04-27T08:24:50.509Z,10.80
2017-04-27T08:27:18.189Z,11.10
2017-04-27T08:29:45.829Z,11.70
2017-04-27T08:32:13.505Z,12.30
2017-04-27T08:34:41.914Z,12.30
2017-04-27T08:37:09.593Z,12.30
2017-04-27T08:39:38.021Z,13.60
2017-04-27T08:42:06.012Z,13.50
2017-04-27T08:44:33.664Z,13.50
2017-04-27T08:47:01.322Z,13.50
2017-04-27T08:49:28.987Z,13.40
2017-04-27T08:51:57.400Z,13.10
2017-04-27T08:54:25.068Z,13.00
2017-04-27T08:56:52.730Z,13.00
2017-04-27T08:59:20.657Z,13.00
2017-04-27T09:01:48.333Z,13.00
2017-04-27T09:04:16.771Z,12.90
2017-04-27T09:06:45.206Z,12.70
2017-04-27T09:09:12.864Z,12.70
2017-04-27T09:11:40.534Z,12.70
2017-04-27T09:14:09.690Z,12.50
2017-04-27T09:16:39.201Z,12.40
2017-04-27T09:19:06.847Z,12.30
2017-04-27T09:21:34.495Z,12.20
2017-04-27T09:24:02.161Z,12.50
2017-04-27T09:26:29.796Z,12.70
2017-04-27T09:28:57.837Z,12.70
2017-04-27T09:31:25.507Z,12.40
2017-04-27T09:33:53.964Z,12.30
2017-04-27T09:36:21.641Z,12.30
2017-04-27T09:38:50.048Z,12.40
2017-04-27T09:41:18.111Z,12.30
2017-04-27T09:43:45.761Z,12.40
2017-04-27T09:46:13.424Z,12.30
2017-04-27T09:48:41.088Z,12.20
2017-04-27T09:51:08.731Z,12.30
2017-04-27T09:53:36.777Z,12.40
2017-04-27T09:56:04.430Z,12.50
2017-04-27T09:58:32.078Z,12.20
2017-04-27T10:00:59.750Z,12.30
2017-04-27T10:03:27.388Z,12.50
2017-04-27T10:05:56.266Z,12.70
2017-04-27T10:08:23.924Z,12.60
2017-04-27T10:10:52.345Z,12.20
2017-04-27T10:13:20.019Z,12.10
2017-04-27T10:15:48.432Z,12.40
2017-04-27T10:18:16.506Z,12.40
2017-04-27T10:20:44.152Z,12.40
2017-04-27T10:23:12.562Z,12.30
2017-04-27T10:25:41.007Z,11.90
2017-04-27T10:28:08.665Z,11.90
2017-04-27T10:30:37.386Z,11.20
2017-04-27T10:33:05.028Z,11.10
2017-04-27T10:35:33.441Z,11.50
2017-04-27T10:38:01.113Z,11.50
2017-04-27T10:40:28.761Z,11.50
2017-04-27T10:42:56.860Z,11.60
2017-04-27T10:45:24.497Z,11.70
2017-04-27T10:47:52.143Z,11.80
2017-04-27T10:50:19.816Z,11.70
2017-04-27T10:52:47.460Z,11.80
2017-04-27T10:55:15.884Z,11.90
2017-04-27T10:57:43.524Z,11.90
2017-04-27T11:00:11.506Z,11.80
2017-04-27T11:02:39.152Z,12.00
2017-04-27T11:05:06.931Z,12.00
2017-04-27T11:07:35.372Z,12.10
2017-04-27T11:10:03.061Z,12.10
2017-04-27T11:12:31.474Z,12.20
2017-04-27T11:14:59.591Z,12.10
2017-04-27T11:17:28.006Z,11.70
2017-04-27T11:19:56.435Z,11.40
2017-04-27T11:22:24.917Z,11.50
2017-04-27T11:24:53.949Z,11.60
2017-04-27T11:27:22.681Z,11.90
2017-04-27T11:29:50.322Z,11.80
2017-04-27T11:32:18.733Z,11.80
2017-04-27T11:34:46.402Z,11.70
2017-04-27T11:37:14.050Z,11.80
2017-04-27T11:39:41.732Z,11.90
2017-04-27T11:42:09.383Z,11.70
2017-04-27T11:44:37.053Z,11.70
2017-04-27T11:47:06.198Z,11.40
2017-04-27T11:49:34.136Z,11.40
2017-04-27T11:52:01.785Z,11.50
2017-04-27T11:54:29.427Z,11.50
2017-04-27T11:56:57.097Z,11.50
2017-04-27T11:59:24.741Z,11.40
2017-04-27T12:01:52.703Z,11.60
2017-04-27T12:04:20.350Z,11.90
2017-04-27T12:06:47.992Z,12.10
2017-04-27T12:09:15.663Z,12.00
2017-04-27T12:11:44.811Z,12.30
2017-04-27T12:14:12.483Z,12.30
2017-04-27T12:16:40.133Z,12.40
2017-04-27T12:19:07.812Z,12.50
2017-04-27T12:21:36.216Z,12.20
2017-04-27T12:24:04.242Z,12.10
2017-04-27T12:26:31.889Z,12.20
2017-04-27T12:28:59.533Z,12.20
2017-04-27T12:31:27.197Z,12.20
2017-04-27T12:33:55.601Z,12.20
2017-04-27T12:36:24.360Z,12.20
2017-04-27T12:38:51.995Z,12.20
2017-04-27T12:41:19.647Z,11.80
2017-04-27T12:43:47.309Z,11.90
2017-04-27T12:46:15.716Z,12.40
2017-04-27T12:48:44.158Z,12.40
2017-04-27T12:51:11.806Z,12.40
2017-04-27T12:53:39.468Z,12.20
2017-04-27T12:56:07.872Z,12.20
2017-04-27T12:58:35.815Z,12.10
2017-04-27T13:01:03.462Z,12.30
2017-04-27T13:03:31.100Z,12.20
2017-04-27T13:05:58.763Z,12.10
2017-04-27T13:08:26.409Z,11.90
2017-04-27T13:10:55.129Z,11.60
2017-04-27T13:13:22.779Z,11.60
2017-04-27T13:15:51.206Z,11.60
2017-04-27T13:18:18.886Z,11.50
2017-04-27T13:20:47.297Z,11.60
2017-04-27T13:23:15.993Z,11.50
2017-04-27T13:25:44.410Z,11.60
2017-04-27T13:28:12.821Z,11.80
2017-04-27T13:30:40.486Z,11.70
2017-04-27T13:33:08.124Z,11.80
2017-04-27T13:35:35.794Z,11.40
2017-04-27T13:38:03.439Z,11.20
2017-04-27T13:40:32.613Z,11.20
2017-04-27T13:43:00.253Z,11.30
2017-04-27T13:45:28.204Z,11.40
2017-04-27T13:47:55.849Z,11.60
2017-04-27T13:50:23.521Z,11.80
2017-04-27T13:52:51.189Z,11.90
2017-04-27T13:55:18.838Z,12.00
2017-04-27T13:57:46.771Z,12.10
2017-04-27T14:00:15.182Z,12.40
2017-04-27T14:02:43.608Z,12.30
2017-04-27T14:05:12.045Z,12.40
2017-04-27T14:07:39.686Z,12.40
2017-04-27T14:10:07.351Z,12.50
2017-04-27T14:12:34.995Z,12.40
2017-04-27T14:15:02.678Z,12.20
2017-04-27T14:17:31.109Z,12.20
2017-04-27T14:19:58.798Z,12.20
2017-04-27T14:22:27.205Z,12.50
2017-04-27T14:24:56.387Z,12.70
2017-04-27T14:27:24.038Z,12.70
2017-04-27T14:29:51.977Z,12.60
2017-04-27T14:32:19.616Z,12.60
2017-04-27T14:34:47.264Z,12.50
2017-04-27T14:37:14.933Z,12.30
2017-04-27T14:39:42.580Z,12.20
2017-04-27T14:42:10.626Z,12.20
2017-04-27T14:44:38.276Z,12.10
2017-04-27T14:47:05.938Z,12.10
2017-04-27T14:49:33.608Z,12.30
2017-04-27T14:52:02.017Z,12.30
2017-04-27T14:54:29.658Z,12.20
2017-04-27T14:56:57.439Z,12.30
2017-04-27T14:59:25.097Z,12.20
2017-04-27T15:01:52.762Z,12.20
2017-04-27T15:04:20.405Z,12.10
2017-04-27T15:06:48.854Z,11.90
2017-04-27T15:09:16.492Z,11.80
2017-04-27T15:11:45.669Z,11.50
2017-04-27T15:14:13.317Z,11.50
2017-04-27T15:16:43.012Z,11.50
2017-04-27T15:19:11.183Z,11.60
2017-04-27T15:21:39.862Z,11.60
2017-04-27T15:24:07.533Z,11.60
2017-04-27T15:26:35.193Z,11.60
2017-04-27T15:29:02.870Z,11.60
2017-04-27T15:31:31.268Z,11.50
2017-04-27T15:33:59.710Z,11.60
2017-04-27T15:36:27.361Z,11.60
2017-04-27T15:38:55.292Z,11.60
2017-04-27T15:41:22.961Z,11.70
2017-04-27T15:43:50.598Z,11.40
2017-04-27T15:46:18.263Z,11.40
2017-04-27T15:48:45.903Z,11.50
2017-04-27T15:51:13.564Z,11.50
2017-04-27T15:53:41.989Z,11.50
2017-04-27T15:56:09.936Z,11.50
2017-04-27T15:58:37.581Z,11.60
2017-04-27T16:01:06.396Z,11.50
2017-04-27T16:03:34.065Z,11.40
2017-04-27T16:06:02.468Z,11.40
2017-04-27T16:08:30.629Z,11.30
2017-04-27T16:10:58.323Z,11.20
2017-04-27T16:13:26.725Z,11.20
2017-04-27T16:15:54.393Z,11.10
2017-04-27T16:18:22.037Z,11.10
2017-04-27T16:20:49.705Z,11.20
2017-04-27T16:23:17.353Z,11.10
2017-04-27T16:25:45.296Z,11.00
2017-04-27T16:28:12.944Z,10.90
2017-04-27T16:30:40.593Z,10.90
2017-04-27T16:33:08.262Z,10.90
2017-04-27T16:35:35.897Z,10.90
2017-04-27T16:38:03.821Z,10.70
2017-04-27T16:40:31.465Z,10.60
2017-04-27T16:42:59.113Z,10.70
2017-04-27T16:45:27.541Z,10.70
2017-04-27T16:47:55.185Z,10.70
2017-04-27T16:50:23.620Z,10.60
2017-04-27T16:52:51.282Z,10.50
2017-04-27T16:55:20.005Z,10.50
2017-04-27T16:57:48.418Z,10.50
2017-04-27T17:00:16.828Z,10.40
2017-04-27T17:02:45.265Z,10.30
2017-04-27T17:05:12.912Z,10.30
2017-04-27T17:07:41.730Z,10.20
2017-04-27T17:10:09.377Z,10.10
2017-04-27T17:12:37.785Z,10.00
2017-04-27T17:15:06.239Z,10.00
2017-04-27T17:17:34.644Z,9.90
2017-04-27T17:20:02.597Z,9.90
2017-04-27T17:22:31.005Z,9.90
2017-04-27T17:24:58.661Z,9.90
2017-04-27T17:27:26.337Z,9.90
2017-04-27T17:29:54.754Z,9.70
2017-04-27T17:32:22.417Z,9.60
2017-04-27T17:34:51.468Z,9.50
2017-04-27T17:37:19.140Z,9.40
2017-04-27T17:39:46.788Z,9.40
2017-04-27T17:42:14.804Z,9.40
2017-04-27T17:44:43.276Z,9.20
2017-04-27T17:47:11.799Z,9.10
2017-04-27T17:49:40.234Z,9.10
2017-04-27T17:52:08.659Z,8.90
2017-04-27T17:54:37.434Z,8.90
2017-04-27T17:57:05.097Z,8.80
2017-04-27T17:59:32.749Z,8.80
2017-04-27T18:02:00.417Z,8.70
2017-04-27T18:04:28.063Z,8.60
2017-04-27T18:06:55.728Z,8.50
2017-04-27T18:09:24.129Z,8.50
2017-04-27T18:11:52.099Z,8.50
2017-04-27T18:14:19.747Z,8.40
2017-04-27T18:16:47.420Z,8.30
2017-04-27T18:19:15.093Z,8.30
2017-04-27T18:21:43.508Z,8.20
2017-04-27T18:24:11.936Z,8.10
2017-04-27T18:26:39.578Z,8.00
2017-04-27T18:29:07.671Z,8.00
2017-04-27T18:31:35.568Z,8.00
2017-04-27T18:34:03.213Z,7.90
2017-04-27T18:36:31.646Z,7.60
2017-04-27T18:41:36.389Z,7.50
2017-04-27T18:44:04.811Z,7.20
2017-04-27T18:46:32.445Z,7.20
2017-04-27T18:49:00.888Z,7.10
2017-04-27T18:51:28.530Z,7.10
2017-04-27T18:53:57.230Z,7.00
2017-04-27T18:56:24.883Z,6.90
2017-04-27T18:58:52.522Z,6.90
2017-04-27T19:01:20.488Z,6.80
2017-04-27T19:03:48.128Z,6.80
2017-04-27T19:06:15.767Z,6.70
2017-04-27T19:08:43.425Z,6.70
2017-04-27T19:11:11.073Z,6.60
2017-04-27T19:13:39.029Z,6.50
2017-04-27T19:16:06.660Z,6.40
2017-04-27T19:18:34.305Z,6.40
2017-04-27T19:21:02.729Z,6.30
2017-04-27T19:23:31.135Z,6.20
2017-04-27T19:25:58.795Z,6.20
2017-04-27T19:28:26.442Z,6.20
2017-04-27T19:30:54.872Z,6.10
2017-04-27T19:33:22.541Z,6.10
2017-04-27T19:35:50.514Z,6.20
2017-04-27T19:38:18.962Z,6.00
2017-04-27T19:40:46.683Z,6.00
2017-04-27T19:43:15.124Z,5.80
2017-04-27T19:45:42.772Z,5.80
2017-04-27T19:48:11.956Z,5.70
2017-04-27T19:50:39.592Z,5.70
2017-04-27T19:53:08.022Z,5.70
2017-04-27T19:55:35.669Z,5.60
2017-04-27T19:58:03.333Z,5.60
2017-04-27T20:00:30.974Z,5.60
2017-04-27T20:02:58.645Z,5.60
2017-04-27T20:05:26.293Z,5.60
2017-04-27T20:07:55.564Z,5.50
2017-04-27T20:10:23.402Z,5.50
2017-04-27T20:12:51.081Z,5.40
2017-04-27T20:15:24.073Z,5.40
2017-04-27T20:17:52.511Z,5.30
2017-04-27T20:20:20.162Z,5.30
2017-04-27T20:22:47.914Z,5.30
2017-04-27T20:25:15.569Z,5.20
2017-04-27T20:27:44.001Z,5.30
2017-04-27T20:30:11.658Z,5.20
2017-04-27T20:32:39.330Z,5.30
2017-04-27T20:35:07.749Z,5.20
2017-04-27T20:37:36.199Z,5.20
2017-04-27T20:40:03.860Z,5.10
2017-04-27T20:42:32.285Z,5.20
2017-04-27T20:45:00.692Z,5.20
2017-04-27T20:47:28.380Z,5.20
2017-04-27T20:49:56.801Z,5.20
2017-04-27T20:52:24.460Z,5.10
2017-04-27T20:54:52.136Z,5.10
2017-04-27T20:57:20.704Z,5.20
2017-04-27T21:00:04.485Z,5.20
2017-04-27T21:02:32.159Z,5.10
2017-04-27T21:04:59.813Z,5.20
2017-04-27T21:07:28.989Z,5.20
2017-04-27T21:09:57.408Z,5.20
2017-04-27T21:12:25.072Z,5.20
2017-04-27T21:14:52.733Z,5.20
2017-04-27T21:17:20.402Z,5.20
2017-04-27T21:19:48.047Z,5.20
2017-04-27T21:22:15.726Z,5.20
2017-04-27T21:24:43.378Z,5.20
2017-04-27T21:27:11.041Z,5.20
2017-04-27T21:29:39.449Z,5.20
2017-04-27T21:32:07.122Z,5.10
2017-04-27T21:34:34.773Z,5.20
2017-04-27T21:37:02.777Z,5.20
2017-04-27T21:39:31.908Z,5.20
2017-04-27T21:42:00.325Z,5.20
2017-04-27T21:44:29.504Z,5.20
2017-04-27T21:46:57.918Z,5.20
2017-04-27T21:49:25.897Z,5.10
2017-04-27T21:51:53.551Z,5.20
2017-04-27T21:54:21.194Z,5.20
2017-04-27T21:56:49.628Z,5.20
2017-04-27T21:59:18.038Z,5.20
2017-04-27T22:01:45.715Z,5.10
2017-04-27T22:04:13.500Z,5.20
2017-04-27T22:06:41.179Z,5.20
2017-04-27T22:09:08.817Z,5.20
2017-04-27T22:11:36.489Z,5.20
2017-04-27T22:14:04.909Z,5.20
2017-04-27T22:16:33.816Z,5.20
2017-04-27T22:19:02.245Z,5.20
2017-04-27T22:21:30.657Z,5.30
2017-04-27T22:23:59.119Z,5.30
2017-04-27T22:26:26.784Z,5.20
2017-04-27T22:28:54.819Z,5.30
2017-04-27T22:31:23.241Z,5.10
2017-04-27T22:33:50.891Z,5.00
2017-04-27T22:36:18.561Z,5.10
2017-04-27T22:38:46.204Z,5.00
2017-04-27T22:41:13.860Z,5.10
2017-04-27T22:43:42.636Z,4.90
2017-04-27T22:46:11.280Z,4.90
2017-04-27T22:48:38.922Z,4.80
2017-04-27T22:51:06.601Z,4.90
2017-04-27T22:53:34.251Z,4.90
2017-04-27T22:56:03.041Z,4.90
2017-04-27T22:58:30.695Z,4.90
2017-04-27T23:00:58.347Z,5.00
2017-04-27T23:03:26.030Z,5.00
2017-04-27T23:05:53.679Z,5.00
2017-04-27T23:08:21.358Z,5.00
2017-04-27T23:10:49.769Z,4.80
2017-04-27T23:13:18.218Z,4.80
2017-04-27T23:15:47.360Z,4.80
2017-04-27T23:18:15.428Z,4.80
2017-04-27T23:20:43.103Z,4.80
2017-04-27T23:23:11.519Z,4.70
2017-04-27T23:25:39.193Z,4.60
2017-04-27T23:28:06.846Z,4.70
2017-04-27T23:30:34.887Z,4.60
2017-04-27T23:33:03.297Z,4.50
2017-04-27T23:35:31.716Z,4.40
2017-04-27T23:37:59.404Z,4.40
2017-04-27T23:40:27.816Z,4.40
2017-04-27T23:42:55.782Z,4.30
2017-04-27T23:45:23.424Z,4.30
2017-04-27T23:47:51.839Z,4.30
2017-04-27T23:50:20.282Z,4.30
2017-04-27T23:52:47.921Z,4.20
2017-04-27T23:55:15.593Z,4.30
2017-04-27T23:57:44.006Z,4.30
